createdAt,value
2018-03-01T00:01:09.578Z,65.30
2018-03-01T00:03:12.177Z,66.44
2018-03-01T00:05:14.716Z,66.43
2018-03-01T00:07:17.197Z,66.39
2018-03-01T00:09:19.697Z,65.45
2018-03-01T00:11:22.152Z,65.36
2018-03-01T00:13:24.732Z,65.53
2018-03-01T00:15:27.169Z,66.01
2018-03-01T00:17:29.742Z,65.56
2018-03-01T00:19:32.214Z,65.52
2018-03-01T00:21:34.737Z,65.33
2018-03-01T00:23:37.222Z,65.82
2018-03-01T00:25:39.728Z,66.14
2018-03-01T00:27:42.169Z,66.04
2018-03-01T00:29:44.612Z,65.86
2018-03-01T00:31:47.093Z,66.02
2018-03-01T00:33:49.528Z,65.94
2018-03-01T00:35:52.112Z,66.49
2018-03-01T00:37:54.588Z,66.12
2018-03-01T00:39:57.039Z,65.43
2018-03-01T00:41:59.549Z,66.27
2018-03-01T00:44:02.148Z,66.26
2018-03-01T00:46:04.664Z,65.48
2018-03-01T00:48:07.148Z,65.84
2018-03-01T00:50:09.619Z,66.54
2018-03-01T00:52:12.113Z,66.20
2018-03-01T00:54:14.614Z,66.26
2018-03-01T00:56:17.075Z,66.30
2018-03-01T00:58:19.545Z,66.40
2018-03-01T01:00:22.128Z,66.19
2018-03-01T01:02:24.580Z,66.75
2018-03-01T01:04:27.080Z,66.46
2018-03-01T01:06:29.605Z,66.75
2018-03-01T01:08:32.105Z,66.75
2018-03-01T01:10:35.835Z,66.69
2018-03-01T01:12:38.419Z,66.66
2018-03-01T01:14:40.902Z,66.97
2018-03-01T01:16:43.423Z,66.65
2018-03-01T01:18:45.864Z,66.88
2018-03-01T01:20:48.320Z,66.29
2018-03-01T01:22:50.803Z,66.77
2018-03-01T01:24:53.283Z,67.31
2018-03-01T01:26:55.781Z,67.81
2018-03-01T01:28:58.263Z,67.33
2018-03-01T01:31:00.766Z,67.14
2018-03-01T01:33:03.219Z,67.58
2018-03-01T01:35:05.695Z,66.55
2018-03-01T01:37:08.173Z,66.85
2018-03-01T01:39:10.723Z,66.78
2018-03-01T01:41:13.230Z,67.25
2018-03-01T01:43:15.700Z,67.26
2018-03-01T01:45:18.170Z,67.46
2018-03-01T01:47:20.753Z,67.72
2018-03-01T01:49:23.259Z,67.67
2018-03-01T01:51:25.750Z,67.78
2018-03-01T01:53:28.220Z,66.84
2018-03-01T01:55:30.779Z,67.49
2018-03-01T01:57:33.302Z,68.05
2018-03-01T01:59:35.752Z,68.10
2018-03-01T02:01:38.218Z,66.98
2018-03-01T02:03:40.712Z,67.02
2018-03-01T02:05:43.275Z,67.17
2018-03-01T02:07:45.750Z,67.52
2018-03-01T02:09:48.219Z,67.76
2018-03-01T02:11:50.664Z,67.49
2018-03-01T02:13:53.149Z,68.46
2018-03-01T02:15:55.581Z,67.60
2018-03-01T02:17:58.113Z,67.33
2018-03-01T02:20:00.791Z,67.21
2018-03-01T02:22:03.314Z,67.45
2018-03-01T02:24:05.784Z,67.90
2018-03-01T02:26:08.359Z,67.88
2018-03-01T02:28:10.849Z,68.07
2018-03-01T02:30:25.010Z,68.14
2018-03-01T02:32:27.480Z,68.01
2018-03-01T02:34:29.953Z,67.39
2018-03-01T02:36:33.236Z,67.88
2018-03-01T02:38:35.824Z,67.55
2018-03-01T02:40:38.275Z,67.41
2018-03-01T02:42:40.911Z,67.19
2018-03-01T02:44:43.412Z,67.65
2018-03-01T02:46:45.865Z,67.77
2018-03-01T02:48:48.306Z,67.58
2018-03-01T02:50:50.824Z,67.62
2018-03-01T02:52:53.290Z,67.53
2018-03-01T02:54:55.762Z,68.08
2018-03-01T02:56:58.223Z,68.00
2018-03-01T02:59:00.702Z,67.82
2018-03-01T03:01:03.239Z,68.33
2018-03-01T03:03:05.763Z,68.03
2018-03-01T03:05:08.234Z,68.61
2018-03-01T03:07:10.705Z,67.73
2018-03-01T03:09:13.150Z,68.06
2018-03-01T03:11:15.606Z,67.63
2018-03-01T03:13:18.180Z,67.92
2018-03-01T03:15:20.639Z,68.10
2018-03-01T03:17:23.239Z,68.09
2018-03-01T03:19:25.711Z,68.39
2018-03-01T03:21:28.231Z,68.07
2018-03-01T03:23:30.675Z,68.39
2018-03-01T03:25:33.164Z,67.98
2018-03-01T03:27:35.627Z,68.36
2018-03-01T03:29:38.110Z,68.01
2018-03-01T03:31:40.565Z,68.05
2018-03-01T03:33:43.035Z,67.88
2018-03-01T03:35:45.515Z,67.90
2018-03-01T03:37:47.970Z,68.08
2018-03-01T03:39:50.461Z,68.49
2018-03-01T03:41:52.921Z,68.20
2018-03-01T03:43:55.390Z,68.57
2018-03-01T03:45:57.912Z,68.68
2018-03-01T03:48:00.480Z,67.68
2018-03-01T03:50:03.016Z,67.84
2018-03-01T03:52:05.521Z,68.59
2018-03-01T03:54:08.065Z,68.65
2018-03-01T03:56:10.520Z,68.01
2018-03-01T03:58:13.228Z,68.30
2018-03-01T04:00:15.766Z,68.64
2018-03-01T04:02:18.235Z,68.32
2018-03-01T04:04:20.737Z,68.75
2018-03-01T04:06:23.280Z,68.66
2018-03-01T04:08:25.786Z,69.09
2018-03-01T04:10:28.282Z,68.20
2018-03-01T04:12:30.736Z,68.55
2018-03-01T04:14:33.241Z,69.05
2018-03-01T04:16:35.703Z,68.91
2018-03-01T04:18:38.185Z,68.74
2018-03-01T04:20:40.682Z,68.71
2018-03-01T04:22:43.137Z,68.88
2018-03-01T04:24:45.601Z,69.34
2018-03-01T04:26:48.191Z,68.68
2018-03-01T04:28:50.647Z,68.71
2018-03-01T04:30:53.092Z,68.48
2018-03-01T04:32:55.608Z,69.20
2018-03-01T04:34:58.101Z,69.30
2018-03-01T04:37:00.731Z,69.30
2018-03-01T04:39:03.316Z,68.26
2018-03-01T04:41:05.806Z,68.13
2018-03-01T04:43:08.398Z,69.13
2018-03-01T04:45:12.220Z,68.16
2018-03-01T04:47:14.689Z,68.57
2018-03-01T04:49:17.152Z,68.39
2018-03-01T04:51:19.631Z,68.46
2018-03-01T04:53:22.207Z,68.27
2018-03-01T04:55:24.733Z,68.46
2018-03-01T04:57:27.183Z,68.37
2018-03-01T04:59:29.677Z,67.95
2018-03-01T05:01:32.208Z,68.67
2018-03-01T05:03:34.712Z,68.69
2018-03-01T05:05:37.267Z,68.58
2018-03-01T05:07:39.706Z,69.29
2018-03-01T05:09:42.132Z,68.56
2018-03-01T05:11:44.702Z,69.35
2018-03-01T05:13:47.257Z,69.58
2018-03-01T05:15:49.799Z,69.26
2018-03-01T05:17:52.303Z,69.47
2018-03-01T05:19:54.811Z,69.84
2018-03-01T05:21:57.349Z,70.09
2018-03-01T05:24:00.022Z,69.67
2018-03-01T05:26:02.499Z,69.81
2018-03-01T05:28:05.060Z,70.79
2018-03-01T05:30:07.527Z,70.84
2018-03-01T05:32:10.063Z,71.22
2018-03-01T05:34:12.553Z,71.80
2018-03-01T05:36:15.020Z,71.92
2018-03-01T05:38:17.562Z,72.04
2018-03-01T05:40:20.017Z,72.81
2018-03-01T05:42:22.504Z,72.67
2018-03-01T05:44:25.047Z,72.06
2018-03-01T05:46:27.612Z,72.62
2018-03-01T05:48:30.057Z,72.81
2018-03-01T05:50:32.634Z,73.20
2018-03-01T05:52:35.241Z,73.15
2018-03-01T05:54:37.694Z,73.19
2018-03-01T05:56:40.130Z,73.06
2018-03-01T05:58:42.701Z,72.64
2018-03-01T06:00:45.192Z,72.34
2018-03-01T06:02:47.738Z,72.31
2018-03-01T06:04:50.231Z,72.40
2018-03-01T06:06:52.686Z,72.67
2018-03-01T06:08:55.164Z,72.51
2018-03-01T06:10:57.698Z,72.29
2018-03-01T06:13:00.229Z,72.84
2018-03-01T06:15:02.782Z,72.66
2018-03-01T06:17:05.343Z,72.42
2018-03-01T06:19:08.338Z,72.26
2018-03-01T06:21:10.901Z,72.55
2018-03-01T06:23:13.532Z,72.47
2018-03-01T06:25:16.130Z,72.61
2018-03-01T06:27:18.635Z,72.59
2018-03-01T06:29:21.133Z,72.19
2018-03-01T06:31:23.717Z,71.87
2018-03-01T06:33:26.207Z,71.76
2018-03-01T06:35:28.657Z,72.06
2018-03-01T06:37:31.199Z,71.67
2018-03-01T06:39:33.691Z,71.98
2018-03-01T06:41:36.177Z,71.40
2018-03-01T06:43:38.725Z,71.54
2018-03-01T06:45:41.268Z,72.16
2018-03-01T06:47:43.827Z,71.82
2018-03-01T06:49:46.355Z,71.22
2018-03-01T06:51:49.670Z,71.41
2018-03-01T06:53:52.147Z,71.46
2018-03-01T06:55:54.653Z,71.11
2018-03-01T06:57:57.273Z,71.19
2018-03-01T06:59:59.733Z,71.19
2018-03-01T07:02:02.235Z,71.35
2018-03-01T07:04:04.745Z,71.54
2018-03-01T07:06:07.252Z,71.34
2018-03-01T07:08:09.765Z,71.22
2018-03-01T07:10:12.231Z,71.04
2018-03-01T07:12:14.794Z,71.41
2018-03-01T07:14:17.349Z,70.36
2018-03-01T07:16:19.879Z,70.18
2018-03-01T07:18:22.311Z,70.16
2018-03-01T07:20:24.850Z,70.25
2018-03-01T07:22:27.310Z,69.42
2018-03-01T07:24:29.775Z,69.37
2018-03-01T07:26:32.424Z,68.81
2018-03-01T07:28:34.935Z,69.39
2018-03-01T07:30:37.434Z,68.33
2018-03-01T07:32:39.919Z,68.36
2018-03-01T07:34:42.483Z,67.92
2018-03-01T07:36:44.954Z,68.68
2018-03-01T07:38:47.515Z,68.43
2018-03-01T07:40:50.043Z,68.12
2018-03-01T07:42:52.560Z,68.41
2018-03-01T07:44:55.118Z,68.32
2018-03-01T07:46:57.599Z,67.95
2018-03-01T07:49:00.140Z,68.09
2018-03-01T07:51:02.684Z,67.77
2018-03-01T07:53:05.276Z,67.90
2018-03-01T07:55:07.778Z,67.84
2018-03-01T07:57:10.400Z,67.27
2018-03-01T07:59:12.963Z,66.78
2018-03-01T08:01:15.473Z,66.64
2018-03-01T08:03:18.043Z,66.89
2018-03-01T08:05:20.545Z,67.37
2018-03-01T08:07:23.206Z,67.48
2018-03-01T08:09:25.748Z,66.74
2018-03-01T08:11:28.240Z,66.72
2018-03-01T08:13:30.828Z,66.16
2018-03-01T08:15:33.286Z,66.78
2018-03-01T08:17:35.760Z,66.88
2018-03-01T08:19:38.299Z,66.03
2018-03-01T08:21:40.809Z,65.41
2018-03-01T08:23:43.299Z,65.99
2018-03-01T08:25:45.825Z,66.24
2018-03-01T08:27:48.310Z,65.25
2018-03-01T08:29:50.852Z,65.23
2018-03-01T08:31:53.367Z,65.91
2018-03-01T08:33:55.854Z,65.78
2018-03-01T08:35:58.475Z,65.13
2018-03-01T08:38:00.968Z,64.10
2018-03-01T08:40:03.496Z,65.59
2018-03-01T08:42:05.999Z,65.44
2018-03-01T08:44:08.463Z,65.73
2018-03-01T08:46:10.917Z,65.07
2018-03-01T08:48:13.518Z,65.28
2018-03-01T08:50:16.025Z,64.26
2018-03-01T08:52:18.629Z,65.50
2018-03-01T08:54:21.220Z,65.17
2018-03-01T08:56:23.735Z,64.40
2018-03-01T08:58:26.289Z,63.56
2018-03-01T09:00:28.756Z,65.20
2018-03-01T09:02:31.272Z,64.85
2018-03-01T09:04:33.805Z,65.46
2018-03-01T09:06:36.310Z,63.47
2018-03-01T09:08:38.850Z,66.03
2018-03-01T09:10:41.370Z,66.74
2018-03-01T09:12:43.847Z,67.01
2018-03-01T09:14:46.440Z,67.60
2018-03-01T09:16:48.986Z,64.25
2018-03-01T09:18:51.490Z,64.28
2018-03-01T09:20:53.986Z,65.29
2018-03-01T09:22:56.436Z,65.62
2018-03-01T09:24:59.000Z,64.92
2018-03-01T09:27:01.485Z,65.69
2018-03-01T09:29:04.200Z,66.06
2018-03-01T09:31:06.711Z,66.41
2018-03-01T09:33:09.216Z,66.78
2018-03-01T09:35:11.722Z,65.47
2018-03-01T09:37:14.167Z,65.35
2018-03-01T09:39:16.642Z,66.36
2018-03-01T09:41:19.210Z,65.98
2018-03-01T09:43:21.846Z,65.29
2018-03-01T09:45:24.302Z,64.73
2018-03-01T09:47:26.815Z,65.23
2018-03-01T09:49:29.302Z,64.80
2018-03-01T09:51:31.851Z,65.44
2018-03-01T09:53:34.445Z,66.11
2018-03-01T09:55:36.900Z,65.33
2018-03-01T09:57:39.343Z,65.21
2018-03-01T09:59:41.837Z,65.92
2018-03-01T10:01:44.281Z,63.49
2018-03-01T10:03:46.985Z,63.88
2018-03-01T10:05:49.436Z,65.24
2018-03-01T10:07:52.080Z,64.73
2018-03-01T10:09:54.576Z,65.48
2018-03-01T10:11:57.080Z,64.08
2018-03-01T10:13:59.572Z,63.52
2018-03-01T10:16:02.056Z,63.56
2018-03-01T10:18:04.556Z,64.63
2018-03-01T10:20:07.052Z,63.56
2018-03-01T10:22:09.510Z,64.43
2018-03-01T10:24:12.050Z,63.51
2018-03-01T10:26:14.500Z,59.80
2018-03-01T10:28:16.971Z,57.86
2018-03-01T10:30:19.465Z,58.47
2018-03-01T10:32:21.935Z,60.05
2018-03-01T10:34:24.482Z,60.39
2018-03-01T10:36:27.026Z,59.30
2018-03-01T10:38:29.575Z,58.42
2018-03-01T10:40:32.089Z,58.89
2018-03-01T10:42:34.564Z,58.45
2018-03-01T10:44:37.112Z,58.12
2018-03-01T10:46:39.602Z,58.78
2018-03-01T10:48:42.061Z,56.54
2018-03-01T10:50:44.598Z,57.86
2018-03-01T10:52:47.093Z,57.45
2018-03-01T10:54:49.736Z,58.50
2018-03-01T10:56:52.449Z,58.38
2018-03-01T10:58:54.953Z,58.41
2018-03-01T11:00:59.161Z,57.87
2018-03-01T11:03:01.665Z,57.80
2018-03-01T11:05:04.122Z,57.30
2018-03-01T11:07:06.674Z,56.72
2018-03-01T11:09:09.127Z,55.59
2018-03-01T11:11:11.613Z,56.90
2018-03-01T11:13:14.214Z,55.66
2018-03-01T11:15:16.741Z,56.12
2018-03-01T11:17:19.191Z,56.94
2018-03-01T11:19:21.686Z,56.44
2018-03-01T11:21:24.138Z,55.61
2018-03-01T11:23:26.680Z,55.82
2018-03-01T11:25:29.178Z,57.55
2018-03-01T11:27:31.652Z,58.97
2018-03-01T11:29:34.106Z,59.83
2018-03-01T11:31:36.616Z,59.44
2018-03-01T11:33:39.111Z,58.95
2018-03-01T11:35:41.641Z,57.93
2018-03-01T11:37:44.086Z,56.74
2018-03-01T11:39:46.587Z,54.38
2018-03-01T11:41:49.077Z,54.17
2018-03-01T11:43:51.609Z,55.99
2018-03-01T11:45:54.137Z,55.20
2018-03-01T11:47:56.588Z,55.93
2018-03-01T11:49:59.139Z,56.86
2018-03-01T11:52:01.679Z,55.84
2018-03-01T11:54:04.174Z,57.48
2018-03-01T11:56:06.657Z,56.75
2018-03-01T11:58:09.115Z,57.82
2018-03-01T12:00:11.568Z,56.05
2018-03-01T12:02:14.046Z,56.60
2018-03-01T12:04:16.589Z,56.61
2018-03-01T12:06:19.101Z,54.18
2018-03-01T12:08:21.618Z,55.03
2018-03-01T12:10:24.398Z,54.81
2018-03-01T12:12:26.844Z,55.41
2018-03-01T12:14:29.412Z,56.13
2018-03-01T12:16:31.940Z,53.96
2018-03-01T12:18:34.458Z,55.20
2018-03-01T12:20:36.993Z,55.42
2018-03-01T12:22:39.453Z,54.36
2018-03-01T12:24:41.983Z,54.30
2018-03-01T12:26:44.504Z,55.06
2018-03-01T12:28:46.963Z,56.53
2018-03-01T12:30:49.469Z,56.52
2018-03-01T12:32:51.937Z,56.81
2018-03-01T12:34:54.412Z,56.48
2018-03-01T12:36:57.039Z,55.06
2018-03-01T12:38:59.527Z,55.10
2018-03-01T12:41:02.082Z,55.37
2018-03-01T12:43:04.727Z,54.93
2018-03-01T12:45:07.197Z,56.22
2018-03-01T12:47:09.788Z,55.74
2018-03-01T12:49:12.232Z,55.36
2018-03-01T12:51:14.757Z,55.20
2018-03-01T12:53:17.238Z,56.50
2018-03-01T12:55:19.783Z,55.88
2018-03-01T12:57:22.278Z,55.38
2018-03-01T12:59:24.752Z,54.60
2018-03-01T13:01:27.262Z,53.31
2018-03-01T13:03:29.718Z,53.81
2018-03-01T13:05:32.249Z,53.64
2018-03-01T13:07:34.792Z,53.95
2018-03-01T13:09:37.323Z,53.88
2018-03-01T13:11:39.812Z,54.09
2018-03-01T13:13:42.522Z,54.72
2018-03-01T13:15:45.127Z,52.75
2018-03-01T13:17:47.610Z,53.94
2018-03-01T13:19:50.162Z,54.01
2018-03-01T13:21:52.721Z,54.71
2018-03-01T13:23:55.298Z,53.29
2018-03-01T13:25:57.832Z,53.67
2018-03-01T13:28:00.285Z,54.75
2018-03-01T13:30:06.359Z,53.23
2018-03-01T13:32:14.590Z,51.62
2018-03-01T13:34:17.788Z,52.40
2018-03-01T13:36:20.284Z,52.31
2018-03-01T13:38:22.783Z,52.08
2018-03-01T13:40:25.273Z,52.68
2018-03-01T13:42:27.765Z,51.86
2018-03-01T13:44:30.328Z,52.33
2018-03-01T13:46:32.810Z,53.27
2018-03-01T13:48:35.349Z,52.30
2018-03-01T13:50:37.795Z,51.71
2018-03-01T13:52:40.282Z,54.04
2018-03-01T13:54:42.728Z,53.78
2018-03-01T13:56:45.252Z,53.49
2018-03-01T13:58:47.715Z,51.40
2018-03-01T14:00:50.202Z,52.40
2018-03-01T14:02:52.822Z,52.86
2018-03-01T14:04:55.312Z,52.92
2018-03-01T14:07:02.251Z,53.77
2018-03-01T14:09:04.685Z,53.37
2018-03-01T14:11:07.385Z,54.29
2018-03-01T14:13:15.437Z,54.05
2018-03-01T14:15:18.029Z,54.04
2018-03-01T14:17:23.254Z,53.75
2018-03-01T14:22:06.439Z,52.46
2018-03-01T14:24:10.688Z,53.70
2018-03-01T14:26:14.002Z,51.98
2018-03-01T14:28:21.869Z,51.82
2018-03-01T14:30:40.154Z,52.05
2018-03-01T14:32:42.720Z,52.08
2018-03-01T14:34:45.309Z,52.00
2018-03-01T14:36:47.830Z,52.04
2018-03-01T14:38:50.374Z,50.34
2018-03-01T14:40:52.840Z,51.90
2018-03-01T14:42:55.393Z,51.45
2018-03-01T14:44:57.893Z,52.82
2018-03-01T14:47:00.470Z,50.77
2018-03-01T14:49:02.968Z,52.37
2018-03-01T14:51:05.434Z,53.16
2018-03-01T14:53:07.913Z,52.78
2018-03-01T14:55:10.389Z,52.49
2018-03-01T14:57:12.940Z,52.52
2018-03-01T14:59:15.417Z,52.46
2018-03-01T15:01:17.928Z,52.68
2018-03-01T15:03:20.393Z,51.52
2018-03-01T15:05:22.931Z,51.51
2018-03-01T15:07:25.414Z,51.58
2018-03-01T15:09:27.892Z,51.05
2018-03-01T15:11:30.340Z,52.24
2018-03-01T15:13:32.851Z,52.15
2018-03-01T15:15:35.373Z,51.43
2018-03-01T15:17:37.867Z,52.19
2018-03-01T15:19:40.335Z,50.69
2018-03-01T15:21:42.973Z,52.65
2018-03-01T15:23:45.381Z,51.68
2018-03-01T15:25:47.941Z,51.23
2018-03-01T15:27:51.426Z,51.62
2018-03-01T15:29:53.914Z,51.27
2018-03-01T15:31:56.409Z,51.91
2018-03-01T15:33:58.937Z,51.48
2018-03-01T15:36:01.378Z,50.99
2018-03-01T15:38:03.846Z,51.39
2018-03-01T15:40:06.335Z,51.85
2018-03-01T15:42:09.025Z,52.24
2018-03-01T15:44:11.606Z,52.22
2018-03-01T15:46:14.051Z,53.17
2018-03-01T15:48:16.575Z,54.55
2018-03-01T15:50:19.114Z,54.66
2018-03-01T15:52:21.590Z,54.45
2018-03-01T15:54:24.901Z,55.54
2018-03-01T15:56:28.385Z,54.70
2018-03-01T15:58:30.856Z,55.13
2018-03-01T16:00:33.369Z,54.63
2018-03-01T16:02:35.884Z,55.47
2018-03-01T16:04:38.349Z,56.51
2018-03-01T16:06:40.881Z,55.97
2018-03-01T16:08:43.516Z,56.50
2018-03-01T16:10:45.989Z,57.56
2018-03-01T16:12:48.592Z,57.04
2018-03-01T16:14:51.062Z,57.55
2018-03-01T16:16:53.550Z,57.83
2018-03-01T16:18:56.147Z,57.32
2018-03-01T16:20:58.627Z,57.66
2018-03-01T16:23:01.125Z,57.84
2018-03-01T16:25:03.728Z,58.32
2018-03-01T16:27:06.221Z,58.73
2018-03-01T16:29:08.770Z,59.37
2018-03-01T16:31:11.300Z,58.38
2018-03-01T16:33:13.810Z,59.45
2018-03-01T16:35:16.309Z,59.18
2018-03-01T16:37:18.807Z,59.73
2018-03-01T16:39:21.376Z,60.04
2018-03-01T16:41:24.897Z,59.46
2018-03-01T16:43:27.355Z,60.65
2018-03-01T16:45:29.842Z,60.71
2018-03-01T16:47:32.326Z,60.82
2018-03-01T16:49:34.824Z,60.86
2018-03-01T16:51:37.421Z,60.33
2018-03-01T16:53:39.963Z,60.38
2018-03-01T16:55:42.554Z,60.76
2018-03-01T16:57:45.047Z,60.44
2018-03-01T16:59:47.524Z,61.06
2018-03-01T17:01:50.030Z,62.77
2018-03-01T17:03:52.608Z,62.82
2018-03-01T17:05:55.048Z,62.79
2018-03-01T17:07:57.611Z,63.12
2018-03-01T17:10:00.192Z,63.57
2018-03-01T17:12:02.701Z,63.34
2018-03-01T17:14:05.158Z,63.62
2018-03-01T17:16:07.687Z,64.16
2018-03-01T17:18:10.200Z,64.33
2018-03-01T17:20:12.681Z,64.01
2018-03-01T17:22:15.308Z,64.26
2018-03-01T17:24:17.977Z,64.24
2018-03-01T17:26:20.425Z,63.89
2018-03-01T17:28:22.928Z,64.38
2018-03-01T17:30:25.565Z,64.19
2018-03-01T17:32:28.063Z,64.90
2018-03-01T17:34:30.506Z,64.57
2018-03-01T17:36:33.030Z,64.75
2018-03-01T17:38:35.555Z,65.52
2018-03-01T17:40:38.081Z,65.28
2018-03-01T17:42:40.542Z,65.04
2018-03-01T17:44:42.985Z,65.55
2018-03-01T17:46:45.648Z,65.05
2018-03-01T17:48:48.182Z,64.91
2018-03-01T17:50:50.686Z,65.78
2018-03-01T17:52:53.250Z,65.90
2018-03-01T17:54:55.698Z,65.47
2018-03-01T17:56:58.243Z,66.14
2018-03-01T17:59:00.757Z,66.01
2018-03-01T18:01:03.269Z,65.72
2018-03-01T18:03:05.742Z,66.04
2018-03-01T18:05:08.243Z,66.40
2018-03-01T18:07:10.801Z,66.28
2018-03-01T18:09:13.325Z,66.40
2018-03-01T18:11:15.846Z,66.65
2018-03-01T18:13:18.396Z,66.98
2018-03-01T18:15:20.904Z,66.72
2018-03-01T18:17:23.414Z,66.51
2018-03-01T18:19:28.322Z,66.43
2018-03-01T18:21:30.866Z,66.51
2018-03-01T18:23:33.447Z,66.82
2018-03-01T18:25:36.044Z,66.84
2018-03-01T18:27:38.537Z,66.95
2018-03-01T18:29:41.128Z,66.36
2018-03-01T18:31:43.717Z,66.65
2018-03-01T18:33:46.308Z,66.80
2018-03-01T18:35:48.811Z,67.48
2018-03-01T18:37:51.282Z,67.24
2018-03-01T18:39:55.074Z,67.29
2018-03-01T18:41:57.615Z,67.40
2018-03-01T18:44:00.214Z,66.75
2018-03-01T18:46:02.826Z,66.79
2018-03-01T18:48:05.314Z,67.21
2018-03-01T18:50:07.898Z,66.91
2018-03-01T18:52:10.499Z,66.62
2018-03-01T18:54:13.003Z,67.05
2018-03-01T18:56:15.516Z,66.74
2018-03-01T18:58:18.089Z,66.75
2018-03-01T19:00:20.598Z,66.42
2018-03-01T19:02:23.134Z,67.36
2018-03-01T19:04:25.710Z,66.42
2018-03-01T19:06:28.254Z,66.42
2018-03-01T19:08:30.750Z,66.30
2018-03-01T19:10:33.219Z,65.67
2018-03-01T19:12:35.743Z,65.64
2018-03-01T19:14:38.228Z,65.54
2018-03-01T19:16:40.713Z,65.28
2018-03-01T19:18:43.309Z,64.83
2018-03-01T19:20:45.829Z,65.30
2018-03-01T19:22:48.419Z,64.88
2018-03-01T19:24:50.904Z,64.69
2018-03-01T19:26:53.499Z,65.88
2018-03-01T19:28:56.002Z,65.38
2018-03-01T19:30:58.528Z,65.08
2018-03-01T19:33:01.020Z,65.10
2018-03-01T19:35:03.512Z,64.85
2018-03-01T19:37:06.055Z,65.94
2018-03-01T19:39:08.578Z,64.90
2018-03-01T19:41:11.099Z,64.47
2018-03-01T19:43:13.667Z,63.95
2018-03-01T19:45:16.156Z,63.38
2018-03-01T19:47:18.658Z,63.61
2018-03-01T19:49:21.219Z,63.21
2018-03-01T19:51:23.818Z,63.53
2018-03-01T19:53:26.282Z,63.46
2018-03-01T19:55:28.809Z,63.14
2018-03-01T19:57:31.298Z,62.95
2018-03-01T19:59:33.893Z,63.45
2018-03-01T20:01:36.413Z,63.07
2018-03-01T20:03:38.929Z,63.01
2018-03-01T20:05:41.408Z,62.94
2018-03-01T20:07:43.918Z,61.94
2018-03-01T20:09:46.415Z,61.25
2018-03-01T20:11:49.018Z,61.64
2018-03-01T20:13:51.518Z,59.98
2018-03-01T20:15:53.991Z,60.54
2018-03-01T20:17:56.478Z,61.17
2018-03-01T20:19:58.984Z,61.56
2018-03-01T20:22:01.529Z,62.45
2018-03-01T20:24:04.093Z,62.01
2018-03-01T20:26:06.689Z,61.04
2018-03-01T20:28:09.203Z,62.41
2018-03-01T20:30:11.794Z,61.62
2018-03-01T20:32:14.331Z,61.47
2018-03-01T20:34:16.814Z,61.35
2018-03-01T20:36:19.372Z,60.64
2018-03-01T20:38:21.877Z,61.37
2018-03-01T20:40:24.445Z,61.33
2018-03-01T20:42:27.008Z,60.73
2018-03-01T20:44:29.474Z,60.93
2018-03-01T20:46:31.995Z,61.76
2018-03-01T20:48:34.602Z,60.36
2018-03-01T20:50:37.184Z,61.50
2018-03-01T20:52:39.675Z,61.18
2018-03-01T20:54:42.337Z,60.67
2018-03-01T20:56:44.789Z,60.63
2018-03-01T20:58:47.314Z,60.46
2018-03-01T21:00:49.824Z,60.75
2018-03-01T21:02:52.289Z,60.64
2018-03-01T21:04:54.825Z,61.27
2018-03-01T21:06:57.490Z,61.94
2018-03-01T21:08:59.975Z,61.67
2018-03-01T21:11:02.523Z,61.50
2018-03-01T21:13:04.964Z,61.02
2018-03-01T21:15:07.474Z,60.83
2018-03-01T21:17:09.953Z,60.96
2018-03-01T21:19:12.568Z,61.26
2018-03-01T21:21:15.034Z,61.62
2018-03-01T21:23:17.595Z,61.55
2018-03-01T21:25:20.060Z,62.04
2018-03-01T21:27:22.603Z,61.79
2018-03-01T21:29:25.170Z,62.28
2018-03-01T21:31:27.624Z,61.60
2018-03-01T21:33:30.168Z,62.62
2018-03-01T21:35:32.675Z,61.83
2018-03-01T21:37:35.139Z,63.02
2018-03-01T21:39:37.690Z,63.11
2018-03-01T21:41:40.156Z,62.42
2018-03-01T21:43:42.630Z,62.37
2018-03-01T21:45:45.139Z,61.25
2018-03-01T21:47:47.566Z,62.17
2018-03-01T21:49:50.061Z,62.68
2018-03-01T21:51:52.648Z,63.44
2018-03-01T21:53:55.161Z,63.46
2018-03-01T21:55:57.715Z,62.99
2018-03-01T21:58:00.174Z,62.18
2018-03-01T22:00:03.495Z,62.98
2018-03-01T22:02:06.020Z,62.66
2018-03-01T22:04:08.510Z,63.38
2018-03-01T22:06:10.986Z,62.19
2018-03-01T22:08:13.510Z,61.79
2018-03-01T22:10:15.999Z,62.30
2018-03-01T22:12:18.521Z,63.11
2018-03-01T22:14:21.091Z,62.89
2018-03-01T22:16:23.613Z,63.93
2018-03-01T22:18:26.145Z,64.08
2018-03-01T22:20:28.734Z,63.78
2018-03-01T22:22:31.199Z,64.64
2018-03-01T22:24:33.795Z,63.70
2018-03-01T22:26:36.274Z,63.79
2018-03-01T22:28:38.723Z,63.82
2018-03-01T22:30:41.251Z,63.87
2018-03-01T22:32:43.730Z,64.35
2018-03-01T22:34:46.240Z,64.43
2018-03-01T22:36:48.726Z,64.20
2018-03-01T22:38:51.231Z,63.30
2018-03-01T22:40:53.691Z,64.03
2018-03-01T22:42:56.386Z,64.25
2018-03-01T22:44:58.844Z,63.92
2018-03-01T22:47:01.343Z,64.36
2018-03-01T22:49:03.846Z,63.66
2018-03-01T22:51:06.359Z,64.56
2018-03-01T22:53:08.921Z,64.43
2018-03-01T22:55:11.373Z,64.81
2018-03-01T22:57:13.920Z,64.85
2018-03-01T22:59:16.421Z,65.14
2018-03-01T23:01:18.943Z,65.86
2018-03-01T23:03:21.386Z,64.44
2018-03-01T23:05:23.909Z,64.94
2018-03-01T23:07:26.422Z,65.37
2018-03-01T23:09:28.916Z,66.04
2018-03-01T23:11:31.528Z,66.51
2018-03-01T23:13:33.982Z,66.28
2018-03-01T23:15:36.440Z,66.61
2018-03-01T23:17:38.911Z,66.69
2018-03-01T23:19:41.405Z,67.26
2018-03-01T23:21:43.905Z,66.74
2018-03-01T23:23:46.378Z,67.25
2018-03-01T23:25:48.806Z,67.31
2018-03-01T23:27:51.386Z,67.12
2018-03-01T23:29:53.950Z,67.74
2018-03-01T23:31:59.029Z,67.81
2018-03-01T23:34:01.519Z,67.53
2018-03-01T23:36:04.076Z,67.08
2018-03-01T23:38:06.579Z,67.57
2018-03-01T23:40:09.138Z,67.85
2018-03-01T23:42:11.620Z,67.85
2018-03-01T23:44:14.137Z,67.81
2018-03-01T23:46:16.646Z,67.36
2018-03-01T23:48:19.094Z,68.05
2018-03-01T23:50:21.521Z,68.07
2018-03-01T23:52:24.045Z,67.88
2018-03-01T23:54:26.520Z,68.25
2018-03-01T23:56:29.127Z,68.35
2018-03-01T23:58:31.618Z,68.39
